sensor_id;sensor_type;location;lat;lon;timestamp;P1;durP1;ratioP1;P2;durP2;ratioP2
19836;SDS011;10079;55.740;37.662;2023-12-20T00:06:23;2.03;;;1.40;;
19836;SDS011;10079;55.740;37.662;2023-12-20T00:09:07;1.37;;;1.20;;
19836;SDS011;10079;55.740;37.662;2023-12-20T00:11:51;3.33;;;1.23;;
19836;SDS011;10079;55.740;37.662;2023-12-20T00:14:41;2.10;;;1.43;;
19836;SDS011;10079;55.740;37.662;2023-12-20T00:17:25;2.30;;;1.43;;
19836;SDS011;10079;55.740;37.662;2023-12-20T00:20:09;3.77;;;1.70;;
19836;SDS011;10079;55.740;37.662;2023-12-20T00:22:56;4.70;;;1.97;;
19836;SDS011;10079;55.740;37.662;2023-12-20T00:25:36;3.47;;;1.90;;
19836;SDS011;10079;55.740;37.662;2023-12-20T00:28:20;1.93;;;1.50;;
19836;SDS011;10079;55.740;37.662;2023-12-20T00:31:05;2.73;;;1.97;;
19836;SDS011;10079;55.740;37.662;2023-12-20T00:33:49;2.43;;;1.50;;
19836;SDS011;10079;55.740;37.662;2023-12-20T00:36:33;2.60;;;1.50;;
19836;SDS011;10079;55.740;37.662;2023-12-20T00:49:51;2.53;;;2.10;;
19836;SDS011;10079;55.740;37.662;2023-12-20T00:52:32;6.70;;;2.70;;
19836;SDS011;10079;55.740;37.662;2023-12-20T00:55:13;9.33;;;3.63;;
19836;SDS011;10079;55.740;37.662;2023-12-20T00:57:54;5.30;;;2.50;;
19836;SDS011;10079;55.740;37.662;2023-12-20T01:00:34;2.07;;;1.60;;
19836;SDS011;10079;55.740;37.662;2023-12-20T01:03:16;3.83;;;1.73;;
19836;SDS011;10079;55.740;37.662;2023-12-20T01:05:56;2.33;;;1.60;;
19836;SDS011;10079;55.740;37.662;2023-12-20T01:08:37;3.10;;;1.77;;
19836;SDS011;10079;55.740;37.662;2023-12-20T01:11:18;1.90;;;1.70;;
19836;SDS011;10079;55.740;37.662;2023-12-20T01:14:02;1.80;;;1.63;;
19836;SDS011;10079;55.740;37.662;2023-12-20T01:16:43;2.73;;;1.70;;
19836;SDS011;10079;55.740;37.662;2023-12-20T01:19:24;2.37;;;2.00;;
19836;SDS011;10079;55.740;37.662;2023-12-20T01:22:04;2.20;;;1.80;;
19836;SDS011;10079;55.740;37.662;2023-12-20T01:24:45;1.87;;;1.67;;
19836;SDS011;10079;55.740;37.662;2023-12-20T01:27:25;2.53;;;1.83;;
19836;SDS011;10079;55.740;37.662;2023-12-20T01:30:08;3.13;;;1.93;;
19836;SDS011;10079;55.740;37.662;2023-12-20T01:32:52;3.13;;;1.80;;
19836;SDS011;10079;55.740;37.662;2023-12-20T01:35:33;3.63;;;1.63;;
19836;SDS011;10079;55.740;37.662;2023-12-20T01:38:25;2.40;;;1.73;;
19836;SDS011;10079;55.740;37.662;2023-12-20T02:02:41;1.70;;;1.60;;
19836;SDS011;10079;55.740;37.662;2023-12-20T02:05:25;2.30;;;1.47;;
19836;SDS011;10079;55.740;37.662;2023-12-20T02:08:18;1.90;;;1.60;;
19836;SDS011;10079;55.740;37.662;2023-12-20T02:11:11;3.30;;;1.27;;
19836;SDS011;10079;55.740;37.662;2023-12-20T02:24:38;1.43;;;1.00;;
19836;SDS011;10079;55.740;37.662;2023-12-20T02:27:22;1.87;;;1.00;;
19836;SDS011;10079;55.740;37.662;2023-12-20T02:30:11;1.97;;;1.00;;
19836;SDS011;10079;55.740;37.662;2023-12-20T02:32:55;1.40;;;0.93;;
19836;SDS011;10079;55.740;37.662;2023-12-20T02:35:36;1.57;;;0.90;;
19836;SDS011;10079;55.740;37.662;2023-12-20T02:38:20;4.20;;;1.10;;
19836;SDS011;10079;55.740;37.662;2023-12-20T02:41:12;1.13;;;0.90;;
19836;SDS011;10079;55.740;37.662;2023-12-20T02:44:05;2.03;;;1.00;;
19836;SDS011;10079;55.740;37.662;2023-12-20T02:46:49;2.17;;;1.07;;
19836;SDS011;10079;55.740;37.662;2023-12-20T02:49:30;1.63;;;1.03;;
19836;SDS011;10079;55.740;37.662;2023-12-20T02:52:11;1.10;;;1.00;;
19836;SDS011;10079;55.740;37.662;2023-12-20T02:55:00;1.70;;;0.97;;
19836;SDS011;10079;55.740;37.662;2023-12-20T03:08:26;2.10;;;1.43;;
19836;SDS011;10079;55.740;37.662;2023-12-20T03:11:16;2.57;;;1.43;;
19836;SDS011;10079;55.740;37.662;2023-12-20T03:13:56;1.90;;;1.30;;
19836;SDS011;10079;55.740;37.662;2023-12-20T03:16:37;3.13;;;2.00;;
19836;SDS011;10079;55.740;37.662;2023-12-20T03:19:18;3.00;;;1.80;;
19836;SDS011;10079;55.740;37.662;2023-12-20T03:21:58;1.90;;;1.80;;
19836;SDS011;10079;55.740;37.662;2023-12-20T03:24:42;3.03;;;2.23;;
19836;SDS011;10079;55.740;37.662;2023-12-20T03:27:27;2.90;;;2.07;;
19836;SDS011;10079;55.740;37.662;2023-12-20T03:30:07;3.67;;;1.90;;
19836;SDS011;10079;55.740;37.662;2023-12-20T03:32:49;2.27;;;1.90;;
19836;SDS011;10079;55.740;37.662;2023-12-20T03:35:30;3.37;;;2.13;;
19836;SDS011;10079;55.740;37.662;2023-12-20T03:38:14;2.60;;;2.07;;
19836;SDS011;10079;55.740;37.662;2023-12-20T03:40:58;3.20;;;1.90;;
19836;SDS011;10079;55.740;37.662;2023-12-20T03:43:42;3.73;;;2.10;;
19836;SDS011;10079;55.740;37.662;2023-12-20T03:46:23;2.47;;;2.13;;
19836;SDS011;10079;55.740;37.662;2023-12-20T03:49:04;3.37;;;2.20;;
19836;SDS011;10079;55.740;37.662;2023-12-20T03:51:45;5.30;;;2.63;;
19836;SDS011;10079;55.740;37.662;2023-12-20T03:54:31;3.83;;;2.10;;
19836;SDS011;10079;55.740;37.662;2023-12-20T03:57:13;4.40;;;2.37;;
19836;SDS011;10079;55.740;37.662;2023-12-20T03:59:53;3.40;;;2.10;;
19836;SDS011;10079;55.740;37.662;2023-12-20T04:02:34;5.50;;;2.87;;
19836;SDS011;10079;55.740;37.662;2023-12-20T04:05:27;4.23;;;2.83;;
19836;SDS011;10079;55.740;37.662;2023-12-20T04:08:07;3.90;;;2.50;;
19836;SDS011;10079;55.740;37.662;2023-12-20T04:10:48;4.83;;;2.83;;
19836;SDS011;10079;55.740;37.662;2023-12-20T04:13:29;4.43;;;2.93;;
19836;SDS011;10079;55.740;37.662;2023-12-20T04:16:10;4.23;;;2.70;;
19836;SDS011;10079;55.740;37.662;2023-12-20T04:40:11;5.70;;;3.50;;
19836;SDS011;10079;55.740;37.662;2023-12-20T05:03:58;7.37;;;3.83;;
19836;SDS011;10079;55.740;37.662;2023-12-20T05:17:30;4.80;;;3.00;;
19836;SDS011;10079;55.740;37.662;2023-12-20T05:20:19;5.40;;;2.77;;
19836;SDS011;10079;55.740;37.662;2023-12-20T05:23:09;4.70;;;3.10;;
19836;SDS011;10079;55.740;37.662;2023-12-20T05:36:29;6.27;;;4.00;;
19836;SDS011;10079;55.740;37.662;2023-12-20T05:39:18;3.93;;;2.40;;
19836;SDS011;10079;55.740;37.662;2023-12-20T05:41:59;4.30;;;2.73;;
19836;SDS011;10079;55.740;37.662;2023-12-20T05:44:40;5.70;;;3.00;;
19836;SDS011;10079;55.740;37.662;2023-12-20T05:47:20;4.77;;;2.70;;
19836;SDS011;10079;55.740;37.662;2023-12-20T06:00:35;4.33;;;3.10;;
19836;SDS011;10079;55.740;37.662;2023-12-20T06:03:20;5.10;;;3.13;;
19836;SDS011;10079;55.740;37.662;2023-12-20T06:06:05;4.80;;;3.03;;
19836;SDS011;10079;55.740;37.662;2023-12-20T06:08:56;4.37;;;3.40;;
19836;SDS011;10079;55.740;37.662;2023-12-20T06:11:38;5.20;;;3.27;;
19836;SDS011;10079;55.740;37.662;2023-12-20T06:14:19;4.47;;;3.00;;
19836;SDS011;10079;55.740;37.662;2023-12-20T06:17:00;5.40;;;3.13;;
19836;SDS011;10079;55.740;37.662;2023-12-20T06:19:41;6.07;;;3.50;;
19836;SDS011;10079;55.740;37.662;2023-12-20T06:22:22;5.90;;;2.80;;
19836;SDS011;10079;55.740;37.662;2023-12-20T06:25:06;4.33;;;3.13;;
19836;SDS011;10079;55.740;37.662;2023-12-20T06:27:48;6.30;;;3.10;;
19836;SDS011;10079;55.740;37.662;2023-12-20T06:30:32;4.53;;;3.00;;
19836;SDS011;10079;55.740;37.662;2023-12-20T06:33:13;5.93;;;2.77;;
19836;SDS011;10079;55.740;37.662;2023-12-20T06:35:54;4.57;;;2.60;;
19836;SDS011;10079;55.740;37.662;2023-12-20T06:38:34;4.97;;;2.93;;
19836;SDS011;10079;55.740;37.662;2023-12-20T06:41:15;4.83;;;3.00;;
19836;SDS011;10079;55.740;37.662;2023-12-20T06:43:56;5.23;;;2.90;;
19836;SDS011;10079;55.740;37.662;2023-12-20T06:46:36;3.43;;;2.47;;
19836;SDS011;10079;55.740;37.662;2023-12-20T06:49:18;6.03;;;3.13;;
19836;SDS011;10079;55.740;37.662;2023-12-20T06:51:58;5.17;;;2.93;;
19836;SDS011;10079;55.740;37.662;2023-12-20T06:54:39;4.50;;;3.07;;
19836;SDS011;10079;55.740;37.662;2023-12-20T06:57:21;4.90;;;2.67;;
19836;SDS011;10079;55.740;37.662;2023-12-20T07:00:06;5.07;;;3.07;;
19836;SDS011;10079;55.740;37.662;2023-12-20T07:45:22;3.10;;;2.40;;
19836;SDS011;10079;55.740;37.662;2023-12-20T07:48:04;5.47;;;2.50;;
19836;SDS011;10079;55.740;37.662;2023-12-20T07:50:49;4.60;;;3.07;;
19836;SDS011;10079;55.740;37.662;2023-12-20T07:53:29;4.83;;;2.80;;
19836;SDS011;10079;55.740;37.662;2023-12-20T07:56:15;7.83;;;2.90;;
19836;SDS011;10079;55.740;37.662;2023-12-20T07:58:59;5.20;;;3.00;;
19836;SDS011;10079;55.740;37.662;2023-12-20T08:12:21;6.03;;;2.50;;
19836;SDS011;10079;55.740;37.662;2023-12-20T08:15:02;3.80;;;2.40;;
19836;SDS011;10079;55.740;37.662;2023-12-20T08:17:43;3.50;;;2.40;;
19836;SDS011;10079;55.740;37.662;2023-12-20T08:20:24;3.80;;;2.87;;
19836;SDS011;10079;55.740;37.662;2023-12-20T08:23:05;4.10;;;2.07;;
19836;SDS011;10079;55.740;37.662;2023-12-20T08:25:46;3.37;;;2.40;;
19836;SDS011;10079;55.740;37.662;2023-12-20T08:28:27;4.93;;;2.67;;
19836;SDS011;10079;55.740;37.662;2023-12-20T08:31:13;3.37;;;2.30;;
19836;SDS011;10079;55.740;37.662;2023-12-20T08:33:49;4.10;;;2.37;;
19836;SDS011;10079;55.740;37.662;2023-12-20T08:36:33;4.10;;;2.40;;
19836;SDS011;10079;55.740;37.662;2023-12-20T08:39:17;5.03;;;2.70;;
19836;SDS011;10079;55.740;37.662;2023-12-20T08:42:01;4.20;;;2.60;;
19836;SDS011;10079;55.740;37.662;2023-12-20T08:44:46;4.63;;;2.57;;
19836;SDS011;10079;55.740;37.662;2023-12-20T08:47:27;5.73;;;2.40;;
19836;SDS011;10079;55.740;37.662;2023-12-20T08:50:11;5.57;;;2.57;;
19836;SDS011;10079;55.740;37.662;2023-12-20T08:52:52;3.73;;;2.23;;
19836;SDS011;10079;55.740;37.662;2023-12-20T08:55:45;4.17;;;2.87;;
19836;SDS011;10079;55.740;37.662;2023-12-20T08:58:26;3.93;;;2.60;;
19836;SDS011;10079;55.740;37.662;2023-12-20T09:01:10;3.97;;;2.53;;
19836;SDS011;10079;55.740;37.662;2023-12-20T09:03:52;3.80;;;2.40;;
19836;SDS011;10079;55.740;37.662;2023-12-20T09:06:36;6.10;;;2.73;;
19836;SDS011;10079;55.740;37.662;2023-12-20T09:09:17;4.63;;;2.80;;
19836;SDS011;10079;55.740;37.662;2023-12-20T09:11:58;4.97;;;3.10;;
19836;SDS011;10079;55.740;37.662;2023-12-20T09:14:42;3.53;;;2.80;;
19836;SDS011;10079;55.740;37.662;2023-12-20T09:17:23;3.23;;;2.47;;
19836;SDS011;10079;55.740;37.662;2023-12-20T09:20:04;4.23;;;2.60;;
19836;SDS011;10079;55.740;37.662;2023-12-20T09:22:46;5.67;;;2.87;;
19836;SDS011;10079;55.740;37.662;2023-12-20T09:25:27;4.27;;;2.60;;
19836;SDS011;10079;55.740;37.662;2023-12-20T09:28:11;5.03;;;3.30;;
19836;SDS011;10079;55.740;37.662;2023-12-20T09:30:52;4.37;;;2.33;;
19836;SDS011;10079;55.740;37.662;2023-12-20T09:33:33;4.00;;;3.10;;
19836;SDS011;10079;55.740;37.662;2023-12-20T09:36:26;4.40;;;2.93;;
19836;SDS011;10079;55.740;37.662;2023-12-20T09:39:16;4.07;;;2.83;;
19836;SDS011;10079;55.740;37.662;2023-12-20T09:42:00;2.90;;;2.60;;
19836;SDS011;10079;55.740;37.662;2023-12-20T09:55:31;7.67;;;3.00;;
19836;SDS011;10079;55.740;37.662;2023-12-20T09:58:15;4.07;;;2.60;;
19836;SDS011;10079;55.740;37.662;2023-12-20T10:00:59;5.63;;;2.80;;
19836;SDS011;10079;55.740;37.662;2023-12-20T10:03:44;4.20;;;2.50;;
19836;SDS011;10079;55.740;37.662;2023-12-20T10:06:28;4.77;;;3.30;;
19836;SDS011;10079;55.740;37.662;2023-12-20T10:09:10;4.30;;;2.90;;
19836;SDS011;10079;55.740;37.662;2023-12-20T10:11:54;4.70;;;3.47;;
19836;SDS011;10079;55.740;37.662;2023-12-20T10:14:47;5.80;;;3.10;;
19836;SDS011;10079;55.740;37.662;2023-12-20T10:17:36;4.70;;;3.40;;
19836;SDS011;10079;55.740;37.662;2023-12-20T10:31:03;6.67;;;3.87;;
19836;SDS011;10079;55.740;37.662;2023-12-20T10:33:47;4.40;;;2.40;;
19836;SDS011;10079;55.740;37.662;2023-12-20T10:36:36;5.43;;;3.30;;
19836;SDS011;10079;55.740;37.662;2023-12-20T10:39:26;4.47;;;2.90;;
19836;SDS011;10079;55.740;37.662;2023-12-20T10:42:20;6.00;;;3.30;;
19836;SDS011;10079;55.740;37.662;2023-12-20T10:45:01;3.63;;;2.37;;
19836;SDS011;10079;55.740;37.662;2023-12-20T10:47:50;3.13;;;2.77;;
19836;SDS011;10079;55.740;37.662;2023-12-20T10:50:31;3.87;;;2.73;;
19836;SDS011;10079;55.740;37.662;2023-12-20T10:53:12;3.27;;;2.57;;
19836;SDS011;10079;55.740;37.662;2023-12-20T11:06:36;3.30;;;2.50;;
19836;SDS011;10079;55.740;37.662;2023-12-20T11:09:22;3.60;;;2.30;;
19836;SDS011;10079;55.740;37.662;2023-12-20T11:12:09;3.37;;;2.00;;
19836;SDS011;10079;55.740;37.662;2023-12-20T11:14:57;2.73;;;2.00;;
19836;SDS011;10079;55.740;37.662;2023-12-20T11:17:39;6.77;;;2.40;;
19836;SDS011;10079;55.740;37.662;2023-12-20T11:20:23;2.90;;;2.00;;
19836;SDS011;10079;55.740;37.662;2023-12-20T11:23:08;2.60;;;1.97;;
19836;SDS011;10079;55.740;37.662;2023-12-20T11:25:53;2.70;;;2.20;;
19836;SDS011;10079;55.740;37.662;2023-12-20T11:28:33;3.67;;;2.60;;
19836;SDS011;10079;55.740;37.662;2023-12-20T11:31:14;4.13;;;2.67;;
19836;SDS011;10079;55.740;37.662;2023-12-20T11:33:55;3.63;;;2.20;;
19836;SDS011;10079;55.740;37.662;2023-12-20T11:36:37;4.17;;;2.27;;
19836;SDS011;10079;55.740;37.662;2023-12-20T11:39:20;4.53;;;2.20;;
19836;SDS011;10079;55.740;37.662;2023-12-20T11:42:04;2.47;;;1.90;;
19836;SDS011;10079;55.740;37.662;2023-12-20T11:44:46;3.00;;;2.30;;
19836;SDS011;10079;55.740;37.662;2023-12-20T11:47:27;4.23;;;2.30;;
19836;SDS011;10079;55.740;37.662;2023-12-20T11:50:08;3.87;;;2.77;;
19836;SDS011;10079;55.740;37.662;2023-12-20T11:52:49;2.93;;;1.97;;
19836;SDS011;10079;55.740;37.662;2023-12-20T11:55:30;2.40;;;2.00;;
19836;SDS011;10079;55.740;37.662;2023-12-20T11:58:11;4.40;;;2.60;;
19836;SDS011;10079;55.740;37.662;2023-12-20T12:00:52;3.70;;;2.17;;
19836;SDS011;10079;55.740;37.662;2023-12-20T12:03:33;3.30;;;2.40;;
19836;SDS011;10079;55.740;37.662;2023-12-20T12:06:22;3.20;;;2.30;;
19836;SDS011;10079;55.740;37.662;2023-12-20T12:09:03;3.60;;;2.70;;
19836;SDS011;10079;55.740;37.662;2023-12-20T12:11:44;4.53;;;2.20;;
19836;SDS011;10079;55.740;37.662;2023-12-20T12:14:29;5.33;;;2.87;;
19836;SDS011;10079;55.740;37.662;2023-12-20T12:17:13;2.50;;;2.23;;
19836;SDS011;10079;55.740;37.662;2023-12-20T12:30:55;4.10;;;2.57;;
19836;SDS011;10079;55.740;37.662;2023-12-20T12:33:40;3.60;;;2.70;;
19836;SDS011;10079;55.740;37.662;2023-12-20T12:36:24;3.97;;;2.87;;
19836;SDS011;10079;55.740;37.662;2023-12-20T12:39:15;6.20;;;2.57;;
19836;SDS011;10079;55.740;37.662;2023-12-20T12:41:59;4.37;;;2.60;;
19836;SDS011;10079;55.740;37.662;2023-12-20T12:44:40;3.53;;;2.10;;
19836;SDS011;10079;55.740;37.662;2023-12-20T12:47:29;3.90;;;2.33;;
19836;SDS011;10079;55.740;37.662;2023-12-20T12:50:22;3.10;;;2.00;;
19836;SDS011;10079;55.740;37.662;2023-12-20T12:53:06;3.37;;;2.03;;
19836;SDS011;10079;55.740;37.662;2023-12-20T12:55:47;4.00;;;2.20;;
19836;SDS011;10079;55.740;37.662;2023-12-20T12:58:28;3.97;;;2.40;;
19836;SDS011;10079;55.740;37.662;2023-12-20T13:01:08;3.47;;;2.20;;
19836;SDS011;10079;55.740;37.662;2023-12-20T13:03:49;3.20;;;2.10;;
19836;SDS011;10079;55.740;37.662;2023-12-20T13:06:33;2.97;;;1.83;;
19836;SDS011;10079;55.740;37.662;2023-12-20T13:09:14;3.53;;;2.13;;
19836;SDS011;10079;55.740;37.662;2023-12-20T13:11:58;4.60;;;2.13;;
19836;SDS011;10079;55.740;37.662;2023-12-20T13:14:39;5.03;;;3.37;;
19836;SDS011;10079;55.740;37.662;2023-12-20T13:17:32;3.30;;;2.00;;
19836;SDS011;10079;55.740;37.662;2023-12-20T13:20:21;3.03;;;2.00;;
19836;SDS011;10079;55.740;37.662;2023-12-20T13:23:02;2.93;;;2.10;;
19836;SDS011;10079;55.740;37.662;2023-12-20T13:36:14;4.47;;;2.20;;
19836;SDS011;10079;55.740;37.662;2023-12-20T13:38:58;2.70;;;2.10;;
19836;SDS011;10079;55.740;37.662;2023-12-20T13:41:39;3.63;;;2.30;;
19836;SDS011;10079;55.740;37.662;2023-12-20T13:44:23;5.50;;;2.27;;
19836;SDS011;10079;55.740;37.662;2023-12-20T13:47:07;2.97;;;2.17;;
19836;SDS011;10079;55.740;37.662;2023-12-20T13:49:51;4.33;;;2.00;;
19836;SDS011;10079;55.740;37.662;2023-12-20T13:52:35;3.00;;;1.93;;
19836;SDS011;10079;55.740;37.662;2023-12-20T14:05:47;4.10;;;2.13;;
19836;SDS011;10079;55.740;37.662;2023-12-20T14:08:55;4.40;;;2.17;;
19836;SDS011;10079;55.740;37.662;2023-12-20T14:11:36;2.93;;;2.23;;
19836;SDS011;10079;55.740;37.662;2023-12-20T14:14:18;4.03;;;2.40;;
19836;SDS011;10079;55.740;37.662;2023-12-20T14:17:00;7.27;;;2.33;;
19836;SDS011;10079;55.740;37.662;2023-12-20T14:19:40;4.00;;;2.27;;
19836;SDS011;10079;55.740;37.662;2023-12-20T14:22:21;3.63;;;2.83;;
19836;SDS011;10079;55.740;37.662;2023-12-20T14:25:03;2.83;;;2.30;;
19836;SDS011;10079;55.740;37.662;2023-12-20T14:27:45;2.80;;;2.07;;
19836;SDS011;10079;55.740;37.662;2023-12-20T14:30:25;3.77;;;2.30;;
19836;SDS011;10079;55.740;37.662;2023-12-20T14:33:07;2.90;;;2.30;;
19836;SDS011;10079;55.740;37.662;2023-12-20T14:36:00;2.27;;;1.80;;
19836;SDS011;10079;55.740;37.662;2023-12-20T14:38:41;2.77;;;2.17;;
19836;SDS011;10079;55.740;37.662;2023-12-20T14:41:22;2.83;;;1.97;;
19836;SDS011;10079;55.740;37.662;2023-12-20T14:44:03;1.70;;;1.60;;
19836;SDS011;10079;55.740;37.662;2023-12-20T14:46:43;3.07;;;1.90;;
19836;SDS011;10079;55.740;37.662;2023-12-20T14:49:24;2.60;;;1.70;;
19836;SDS011;10079;55.740;37.662;2023-12-20T14:52:18;3.13;;;2.03;;
19836;SDS011;10079;55.740;37.662;2023-12-20T14:55:12;3.27;;;2.03;;
19836;SDS011;10079;55.740;37.662;2023-12-20T15:19:11;2.53;;;1.90;;
19836;SDS011;10079;55.740;37.662;2023-12-20T15:22:03;3.03;;;2.00;;
19836;SDS011;10079;55.740;37.662;2023-12-20T15:24:44;2.00;;;1.63;;
19836;SDS011;10079;55.740;37.662;2023-12-20T15:27:38;2.47;;;1.90;;
19836;SDS011;10079;55.740;37.662;2023-12-20T15:30:20;2.83;;;2.20;;
19836;SDS011;10079;55.740;37.662;2023-12-20T15:33:14;3.17;;;1.90;;
19836;SDS011;10079;55.740;37.662;2023-12-20T15:35:54;6.80;;;2.10;;
19836;SDS011;10079;55.740;37.662;2023-12-20T15:38:39;4.27;;;2.23;;
19836;SDS011;10079;55.740;37.662;2023-12-20T15:41:23;2.43;;;2.20;;
19836;SDS011;10079;55.740;37.662;2023-12-20T15:44:04;4.80;;;2.23;;
19836;SDS011;10079;55.740;37.662;2023-12-20T15:46:45;2.37;;;1.83;;
19836;SDS011;10079;55.740;37.662;2023-12-20T15:49:37;3.83;;;2.30;;
19836;SDS011;10079;55.740;37.662;2023-12-20T15:52:23;3.83;;;2.80;;
19836;SDS011;10079;55.740;37.662;2023-12-20T15:55:04;2.90;;;2.07;;
19836;SDS011;10079;55.740;37.662;2023-12-20T15:57:45;4.87;;;2.77;;
19836;SDS011;10079;55.740;37.662;2023-12-20T16:00:29;3.97;;;2.50;;
19836;SDS011;10079;55.740;37.662;2023-12-20T16:03:18;6.17;;;2.40;;
19836;SDS011;10079;55.740;37.662;2023-12-20T16:06:03;2.70;;;2.10;;
19836;SDS011;10079;55.740;37.662;2023-12-20T16:08:47;4.23;;;2.70;;
19836;SDS011;10079;55.740;37.662;2023-12-20T16:11:29;3.23;;;2.27;;
19836;SDS011;10079;55.740;37.662;2023-12-20T16:14:18;3.40;;;2.30;;
19836;SDS011;10079;55.740;37.662;2023-12-20T16:16:59;4.07;;;2.30;;
19836;SDS011;10079;55.740;37.662;2023-12-20T16:19:40;3.57;;;2.90;;
19836;SDS011;10079;55.740;37.662;2023-12-20T16:22:24;4.60;;;3.10;;
19836;SDS011;10079;55.740;37.662;2023-12-20T16:25:08;4.77;;;2.77;;
19836;SDS011;10079;55.740;37.662;2023-12-20T16:27:53;2.70;;;2.50;;
19836;SDS011;10079;55.740;37.662;2023-12-20T16:30:33;5.33;;;3.27;;
19836;SDS011;10079;55.740;37.662;2023-12-20T16:33:14;4.83;;;3.30;;
19836;SDS011;10079;55.740;37.662;2023-12-20T16:35:58;4.40;;;3.60;;
19836;SDS011;10079;55.740;37.662;2023-12-20T16:38:39;5.40;;;3.47;;
19836;SDS011;10079;55.740;37.662;2023-12-20T16:41:20;6.57;;;3.77;;
19836;SDS011;10079;55.740;37.662;2023-12-20T16:44:01;4.67;;;3.70;;
19836;SDS011;10079;55.740;37.662;2023-12-20T16:46:42;4.00;;;3.60;;
19836;SDS011;10079;55.740;37.662;2023-12-20T16:49:31;4.33;;;2.63;;
19836;SDS011;10079;55.740;37.662;2023-12-20T16:52:12;4.03;;;2.73;;
19836;SDS011;10079;55.740;37.662;2023-12-20T16:54:56;4.43;;;2.97;;
19836;SDS011;10079;55.740;37.662;2023-12-20T16:57:49;3.60;;;2.87;;
19836;SDS011;10079;55.740;37.662;2023-12-20T17:00:29;3.73;;;2.73;;
19836;SDS011;10079;55.740;37.662;2023-12-20T17:03:11;3.10;;;2.10;;
19836;SDS011;10079;55.740;37.662;2023-12-20T17:05:55;4.13;;;2.10;;
19836;SDS011;10079;55.740;37.662;2023-12-20T17:08:36;2.30;;;2.07;;
19836;SDS011;10079;55.740;37.662;2023-12-20T17:11:16;3.37;;;2.00;;
19836;SDS011;10079;55.740;37.662;2023-12-20T17:13:57;3.43;;;2.30;;
19836;SDS011;10079;55.740;37.662;2023-12-20T17:16:43;3.37;;;1.90;;
19836;SDS011;10079;55.740;37.662;2023-12-20T17:19:27;1.67;;;1.40;;
19836;SDS011;10079;55.740;37.662;2023-12-20T17:22:09;4.03;;;2.50;;
19836;SDS011;10079;55.740;37.662;2023-12-20T17:24:54;2.13;;;1.60;;
19836;SDS011;10079;55.740;37.662;2023-12-20T17:27:35;3.17;;;1.40;;
19836;SDS011;10079;55.740;37.662;2023-12-20T17:30:19;2.00;;;1.37;;
19836;SDS011;10079;55.740;37.662;2023-12-20T17:33:08;2.83;;;1.20;;
19836;SDS011;10079;55.740;37.662;2023-12-20T17:36:14;3.43;;;1.40;;
19836;SDS011;10079;55.740;37.662;2023-12-20T17:39:07;2.40;;;1.20;;
19836;SDS011;10079;55.740;37.662;2023-12-20T17:41:48;2.17;;;1.30;;
19836;SDS011;10079;55.740;37.662;2023-12-20T17:44:38;2.33;;;1.03;;
19836;SDS011;10079;55.740;37.662;2023-12-20T17:47:22;2.80;;;1.50;;
19836;SDS011;10079;55.740;37.662;2023-12-20T17:50:03;2.73;;;1.80;;
19836;SDS011;10079;55.740;37.662;2023-12-20T17:52:54;2.53;;;1.57;;
19836;SDS011;10079;55.740;37.662;2023-12-20T18:06:23;2.93;;;2.00;;
19836;SDS011;10079;55.740;37.662;2023-12-20T18:09:16;5.50;;;2.60;;
19836;SDS011;10079;55.740;37.662;2023-12-20T18:12:09;4.43;;;2.77;;
19836;SDS011;10079;55.740;37.662;2023-12-20T18:14:49;4.57;;;2.30;;
19836;SDS011;10079;55.740;37.662;2023-12-20T18:17:30;5.83;;;3.23;;
19836;SDS011;10079;55.740;37.662;2023-12-20T18:20:14;3.67;;;1.90;;
19836;SDS011;10079;55.740;37.662;2023-12-20T18:22:55;4.90;;;2.00;;
19836;SDS011;10079;55.740;37.662;2023-12-20T18:25:36;2.07;;;1.50;;
19836;SDS011;10079;55.740;37.662;2023-12-20T18:28:16;2.93;;;1.70;;
19836;SDS011;10079;55.740;37.662;2023-12-20T18:30:57;3.63;;;1.70;;
19836;SDS011;10079;55.740;37.662;2023-12-20T18:33:38;3.20;;;1.90;;
19836;SDS011;10079;55.740;37.662;2023-12-20T18:36:27;4.10;;;2.43;;
19836;SDS011;10079;55.740;37.662;2023-12-20T18:39:15;3.27;;;2.00;;
19836;SDS011;10079;55.740;37.662;2023-12-20T18:41:57;3.27;;;1.90;;
19836;SDS011;10079;55.740;37.662;2023-12-20T18:44:38;3.60;;;1.90;;
19836;SDS011;10079;55.740;37.662;2023-12-20T18:47:23;4.43;;;2.17;;
19836;SDS011;10079;55.740;37.662;2023-12-20T18:50:04;8.13;;;4.33;;
19836;SDS011;10079;55.740;37.662;2023-12-20T18:52:55;4.90;;;3.20;;
19836;SDS011;10079;55.740;37.662;2023-12-20T18:55:36;6.47;;;3.13;;
19836;SDS011;10079;55.740;37.662;2023-12-20T18:58:17;3.47;;;2.27;;
19836;SDS011;10079;55.740;37.662;2023-12-20T19:01:06;3.60;;;2.27;;
19836;SDS011;10079;55.740;37.662;2023-12-20T19:03:48;3.43;;;2.10;;
19836;SDS011;10079;55.740;37.662;2023-12-20T19:06:32;3.73;;;2.00;;
19836;SDS011;10079;55.740;37.662;2023-12-20T19:09:13;12.23;;;6.87;;
19836;SDS011;10079;55.740;37.662;2023-12-20T19:11:57;5.33;;;2.30;;
19836;SDS011;10079;55.740;37.662;2023-12-20T19:14:44;3.13;;;1.97;;
19836;SDS011;10079;55.740;37.662;2023-12-20T19:17:24;3.33;;;2.07;;
19836;SDS011;10079;55.740;37.662;2023-12-20T19:20:05;3.00;;;2.10;;
19836;SDS011;10079;55.740;37.662;2023-12-20T19:22:50;3.37;;;1.67;;
19836;SDS011;10079;55.740;37.662;2023-12-20T19:25:31;2.87;;;1.60;;
19836;SDS011;10079;55.740;37.662;2023-12-20T19:28:15;2.50;;;1.90;;
19836;SDS011;10079;55.740;37.662;2023-12-20T19:30:56;2.53;;;1.80;;
19836;SDS011;10079;55.740;37.662;2023-12-20T19:33:37;3.37;;;1.70;;
19836;SDS011;10079;55.740;37.662;2023-12-20T19:36:18;3.60;;;1.90;;
19836;SDS011;10079;55.740;37.662;2023-12-20T19:39:03;3.03;;;2.07;;
19836;SDS011;10079;55.740;37.662;2023-12-20T19:41:49;4.53;;;1.90;;
19836;SDS011;10079;55.740;37.662;2023-12-20T19:44:29;3.07;;;2.13;;
19836;SDS011;10079;55.740;37.662;2023-12-20T19:47:10;5.77;;;2.83;;
19836;SDS011;10079;55.740;37.662;2023-12-20T19:49:55;4.63;;;2.50;;
19836;SDS011;10079;55.740;37.662;2023-12-20T19:52:36;4.60;;;2.47;;
19836;SDS011;10079;55.740;37.662;2023-12-20T19:55:16;2.77;;;1.60;;
19836;SDS011;10079;55.740;37.662;2023-12-20T19:58:09;5.27;;;1.90;;
19836;SDS011;10079;55.740;37.662;2023-12-20T20:00:50;3.37;;;1.70;;
19836;SDS011;10079;55.740;37.662;2023-12-20T20:03:31;2.77;;;1.60;;
19836;SDS011;10079;55.740;37.662;2023-12-20T20:06:11;4.17;;;1.60;;
19836;SDS011;10079;55.740;37.662;2023-12-20T20:19:23;3.97;;;2.20;;
19836;SDS011;10079;55.740;37.662;2023-12-20T20:32:48;4.03;;;2.20;;
19836;SDS011;10079;55.740;37.662;2023-12-20T20:35:29;3.63;;;2.30;;
19836;SDS011;10079;55.740;37.662;2023-12-20T20:38:14;5.97;;;2.33;;
19836;SDS011;10079;55.740;37.662;2023-12-20T20:40:58;3.67;;;2.17;;
19836;SDS011;10079;55.740;37.662;2023-12-20T20:43:40;4.03;;;2.10;;
19836;SDS011;10079;55.740;37.662;2023-12-20T20:46:34;2.73;;;2.17;;
19836;SDS011;10079;55.740;37.662;2023-12-20T20:49:27;3.87;;;2.03;;
19836;SDS011;10079;55.740;37.662;2023-12-20T20:52:16;3.60;;;2.50;;
19836;SDS011;10079;55.740;37.662;2023-12-20T21:05:44;5.83;;;2.77;;
19836;SDS011;10079;55.740;37.662;2023-12-20T21:08:29;3.50;;;2.57;;
19836;SDS011;10079;55.740;37.662;2023-12-20T21:11:23;5.37;;;2.73;;
19836;SDS011;10079;55.740;37.662;2023-12-20T21:14:07;4.37;;;3.17;;
19836;SDS011;10079;55.740;37.662;2023-12-20T21:16:57;3.73;;;2.63;;
19836;SDS011;10079;55.740;37.662;2023-12-20T21:19:37;6.37;;;3.10;;
19836;SDS011;10079;55.740;37.662;2023-12-20T21:22:26;5.47;;;3.20;;
19836;SDS011;10079;55.740;37.662;2023-12-20T21:25:16;5.03;;;3.77;;